Time;durP1;ratioP1;P1;durP2;ratioP2;P2;SDS_P1;SDS_P2;PMS_P1;PMS_P2;Temp;Humidity;BMP_temperature;BMP_pressure;BME280_temperature;BME280_humidity;BME280_pressure;Samples;Min_cycle;Max_cycle;Signal;HPM_P1;HPM_P2
2022/09/12 00:01:58;;;;;;;2.50;2.30;;;21.70;68.40;;;;;;5005746;28;20684;-71
2022/09/12 00:04:25;;;;;;;2.47;2.38;;;21.60;68.20;;;;;;5006185;28;20199;-71
2022/09/12 00:06:51;;;;;;;2.47;2.38;;;21.60;68.20;;;;;;5014355;28;20205;-71
2022/09/12 00:09:17;;;;;;;2.65;2.45;;;21.60;68.30;;;;;;5026601;28;20191;-71
2022/09/12 00:11:45;;;;;;;2.10;2.00;;;21.60;68.30;;;;;;5026692;28;20218;-70
2022/09/12 00:14:15;;;;;;;2.63;2.40;;;21.60;68.20;;;;;;5025402;28;20642;-70
2022/09/12 00:16:42;;;;;;;2.40;2.30;;;21.60;68.20;;;;;;5042269;28;20226;-71
2022/09/12 00:19:09;;;;;;;2.60;2.40;;;21.60;68.20;;;;;;5042396;28;20211;-71
2022/09/12 00:21:37;;;;;;;2.40;2.20;;;21.60;68.20;;;;;;5042149;28;20207;-71
2022/09/12 00:24:04;;;;;;;2.67;2.47;;;21.60;68.20;;;;;;5042333;28;20211;-71
2022/09/12 00:26:31;;;;;;;2.70;2.50;;;21.60;68.20;;;;;;5024336;28;20183;-71
2022/09/12 00:28:57;;;;;;;2.50;2.40;;;21.60;68.20;;;;;;5025729;28;20237;-71
2022/09/12 00:31:25;;;;;;;2.40;2.20;;;21.60;68.20;;;;;;5042424;28;20203;-71
2022/09/12 00:33:55;;;;;;;2.70;2.50;;;21.60;68.20;;;;;;5025995;28;20217;-72
2022/09/12 00:36:24;;;;;;;2.63;2.42;;;21.60;68.10;;;;;;5040438;28;20183;-71
2022/09/12 00:38:50;;;;;;;2.22;2.13;;;21.60;68.10;;;;;;5042444;28;20207;-71
2022/09/12 00:41:29;;;;;;;2.42;2.33;;;21.60;68.10;;;;;;5041861;28;20203;-70
2022/09/12 00:43:59;;;;;;;2.30;2.20;;;21.60;68.10;;;;;;5041473;28;20175;-70
2022/09/12 00:46:43;;;;;;;3.35;2.35;;;21.60;68.10;;;;;;5041485;28;20310;-71
2022/09/12 00:49:25;;;;;;;3.70;2.40;;;21.60;68.10;;;;;;5025180;28;20187;-71
2022/09/12 00:52:09;;;;;;;2.47;2.38;;;21.50;68.00;;;;;;5042895;28;20215;-71
2022/09/12 00:54:46;;;;;;;2.20;2.10;;;21.60;68.90;;;;;;5025099;28;20205;-71
2022/09/12 00:57:15;;;;;;;2.30;2.20;;;21.50;68.00;;;;;;5040753;28;20195;-71
2022/09/12 01:00:14;;;;;;;2.33;2.22;;;21.60;68.10;;;;;;5041403;28;20211;-71
2022/09/12 01:02:44;;;;;;;2.40;2.20;;;21.50;67.90;;;;;;5024981;28;20187;-71
2022/09/12 01:05:12;;;;;;;2.50;2.40;;;21.60;68.10;;;;;;5042113;28;20624;-71
2022/09/12 01:07:39;;;;;;;2.58;2.42;;;21.60;68.10;;;;;;5040826;28;20182;-71
2022/09/12 01:10:08;;;;;;;2.40;2.30;;;21.60;68.10;;;;;;5025695;28;20197;-71
2022/09/12 01:12:38;;;;;;;2.50;2.40;;;21.50;68.00;;;;;;5040730;28;20659;-71
2022/09/12 01:15:04;;;;;;;2.20;2.10;;;21.50;68.00;;;;;;5024473;28;20190;-71
2022/09/12 01:18:01;;;;;;;2.58;2.38;;;21.50;68.00;;;;;;5041238;28;20183;-71
2022/09/12 01:20:53;;;;;;;2.63;2.42;;;21.50;67.90;;;;;;5024085;28;20233;-71
2022/09/12 01:24:17;;;;;;;2.40;2.30;;;21.50;67.90;;;;;;5024356;28;20175;-71
2022/09/12 01:27:04;;;;;;;2.05;1.95;;;21.50;67.90;;;;;;5040143;28;20203;-71
2022/09/12 01:30:20;;;;;;;2.38;2.25;;;21.50;67.90;;;;;;5040656;28;20191;-71
2022/09/12 01:33:10;;;;;;;2.33;2.20;;;21.50;67.90;;;;;;5041114;28;20187;-71
2022/09/12 01:36:22;;;;;;;2.10;2.00;;;21.50;68.00;;;;;;5023528;28;20191;-71
2022/09/12 01:38:59;;;;;;;2.33;2.22;;;21.50;67.90;;;;;;5024867;28;20233;-71
2022/09/12 01:41:43;;;;;;;2.20;2.10;;;21.50;67.70;;;;;;5024403;28;20207;-71
2022/09/12 01:45:32;;;;;;;2.13;2.03;;;21.50;67.80;;;;;;5013469;28;20188;-71
2022/09/12 01:48:10;;;;;;;2.20;2.10;;;21.50;67.80;;;;;;4938340;28;20233;-71
2022/09/12 01:50:45;;;;;;;2.67;2.50;;;21.50;67.80;;;;;;5020985;28;20208;-71
2022/09/12 01:53:21;;;;;;;2.03;1.92;;;21.50;67.70;;;;;;5004961;28;20180;-71
2022/09/12 01:56:20;;;;;;;2.83;2.50;;;21.50;67.80;;;;;;5003940;28;20183;-70
2022/09/12 01:59:09;;;;;;;2.22;2.03;;;21.50;67.70;;;;;;5022209;28;20291;-70
2022/09/12 02:01:57;;;;;;;2.53;2.33;;;21.50;67.80;;;;;;5024547;28;20227;-70
2022/09/12 02:04:37;;;;;;;2.47;2.30;;;21.50;67.70;;;;;;5023751;28;20219;-70
2022/09/12 02:07:19;;;;;;;2.20;2.10;;;21.50;67.70;;;;;;5022239;28;20184;-71
2022/09/12 02:09:58;;;;;;;2.30;2.20;;;21.50;67.70;;;;;;5040594;28;20183;-70
2022/09/12 02:12:33;;;;;;;2.38;2.28;;;21.50;67.70;;;;;;5040453;28;20187;-70
2022/09/12 02:15:06;;;;;;;2.65;2.45;;;21.50;67.70;;;;;;5040133;28;20292;-70
2022/09/12 02:17:41;;;;;;;2.47;2.38;;;21.50;67.70;;;;;;5039551;28;20179;-70
2022/09/12 02:20:32;;;;;;;2.25;2.10;;;21.40;67.60;;;;;;5039790;28;20226;-71
2022/09/12 02:23:01;;;;;;;2.47;2.38;;;21.40;67.60;;;;;;5057015;28;20171;-71
2022/09/12 02:25:29;;;;;;;2.22;1.92;;;21.50;67.70;;;;;;5039585;28;20191;-71
2022/09/12 02:28:12;;;;;;;2.20;2.10;;;21.40;67.60;;;;;;5039363;28;20191;-71
2022/09/12 02:31:12;;;;;;;2.10;1.90;;;21.50;67.70;;;;;;5039526;28;20207;-70
2022/09/12 02:34:08;;;;;;;2.25;2.10;;;21.40;67.40;;;;;;5023852;28;20207;-70
2022/09/12 02:37:21;;;;;;;2.20;2.10;;;21.40;67.50;;;;;;5022794;28;20187;-71
2022/09/12 02:39:46;;;;;;;2.35;2.17;;;21.40;67.60;;;;;;5024377;28;20714;-71
2022/09/12 02:42:12;;;;;;;1.67;1.58;;;21.40;67.40;;;;;;5040292;28;20270;-71
2022/09/12 02:44:39;;;;;;;2.10;2.00;;;21.40;67.50;;;;;;5039977;28;20270;-71
2022/09/12 02:47:13;;;;;;;2.10;2.00;;;21.40;67.40;;;;;;5039295;28;20575;-71
2022/09/12 02:49:39;;;;;;;2.13;2.03;;;21.40;67.50;;;;;;5040007;28;20190;-71
2022/09/12 02:52:06;;;;;;;2.20;2.10;;;21.40;67.50;;;;;;5020498;28;20264;-70
2022/09/12 02:54:32;;;;;;;2.03;1.92;;;21.40;67.50;;;;;;5028929;28;20194;-71
2022/09/12 02:56:58;;;;;;;2.20;2.10;;;21.40;67.40;;;;;;5041654;28;20213;-71
2022/09/12 02:59:25;;;;;;;2.33;2.20;;;21.40;67.50;;;;;;5041401;28;20215;-71
2022/09/12 03:02:07;;;;;;;2.10;2.00;;;21.40;67.50;;;;;;5023295;28;20210;-71
2022/09/12 03:05:10;;;;;;;2.30;2.20;;;21.40;67.50;;;;;;5038210;28;20191;-71
2022/09/12 03:07:57;;;;;;;2.20;2.10;;;21.40;67.40;;;;;;5038201;28;20190;-71
2022/09/12 03:10:39;;;;;;;2.22;2.03;;;21.40;67.40;;;;;;5038321;28;20214;-71
2022/09/12 03:14:05;;;;;;;2.10;1.90;;;21.40;67.40;;;;;;5021771;28;20183;-71
2022/09/12 03:17:00;;;;;;;2.22;2.13;;;21.40;67.40;;;;;;5017942;28;20195;-70
2022/09/12 03:19:47;;;;;;;1.95;1.85;;;21.40;67.30;;;;;;5004312;28;20231;-71
2022/09/12 03:22:49;;;;;;;2.00;1.90;;;21.40;67.30;;;;;;5022184;28;20226;-71
2022/09/12 03:25:37;;;;;;;1.88;1.77;;;21.40;67.20;;;;;;5037855;28;20183;-71
2022/09/12 03:32:09;;;;;;;2.28;2.17;;;21.40;67.30;;;;;;5036000;28;20230;-71
2022/09/12 03:34:35;;;;;;;2.13;2.03;;;21.40;67.30;;;;;;5034966;28;20196;-71
2022/09/12 03:37:01;;;;;;;1.90;1.80;;;21.40;67.20;;;;;;5009400;28;20259;-70
2022/09/12 03:39:27;;;;;;;2.00;1.90;;;21.40;67.30;;;;;;5038203;28;20215;-71
2022/09/12 03:41:54;;;;;;;2.20;2.10;;;21.40;67.30;;;;;;5038997;28;20202;-71
2022/09/12 03:44:21;;;;;;;2.38;2.28;;;21.40;67.30;;;;;;5055209;28;20184;-71
2022/09/12 03:46:47;;;;;;;2.03;1.92;;;21.40;67.20;;;;;;5038535;28;20265;-71
2022/09/12 03:49:13;;;;;;;2.00;1.90;;;21.40;67.20;;;;;;5038400;28;20189;-71
2022/09/12 03:51:39;;;;;;;2.22;2.08;;;21.40;67.30;;;;;;5054024;28;20234;-70
2022/09/12 03:54:05;;;;;;;2.00;1.90;;;21.40;67.20;;;;;;5037773;28;20318;-70
2022/09/12 03:56:31;;;;;;;2.35;2.15;;;21.30;67.20;;;;;;5037939;28;20653;-71
2022/09/12 03:58:57;;;;;;;1.83;1.73;;;21.40;67.20;;;;;;5038127;28;20246;-71
2022/09/12 04:01:23;;;;;;;2.28;2.08;;;21.40;67.20;;;;;;5021944;28;20302;-71
2022/09/12 04:03:51;;;;;;;2.10;2.00;;;21.40;67.20;;;;;;5035195;28;20188;-71
2022/09/12 04:06:20;;;;;;;2.70;2.08;;;21.30;67.00;;;;;;5034709;28;20184;-71
2022/09/12 04:08:52;;;;;;;2.00;1.90;;;21.30;67.00;;;;;;5034793;28;20188;-71
2022/09/12 04:11:20;;;;;;;2.30;2.20;;;21.30;67.00;;;;;;5020493;28;20235;-71
2022/09/12 04:13:47;;;;;;;2.15;2.05;;;21.30;67.20;;;;;;5022277;28;20207;-71
2022/09/12 04:16:14;;;;;;;1.90;1.80;;;21.30;67.10;;;;;;5037927;28;20640;-71
2022/09/12 04:18:40;;;;;;;1.88;1.77;;;21.30;67.10;;;;;;5038508;28;20223;-72
2022/09/12 04:21:13;;;;;;;1.60;1.50;;;21.30;67.10;;;;;;5039277;28;20208;-71
2022/09/12 04:23:40;;;;;;;2.00;1.90;;;21.30;67.10;;;;;;5022372;28;20180;-71
2022/09/12 04:26:06;;;;;;;1.95;1.85;;;21.30;67.10;;;;;;5038958;28;20180;-71
2022/09/12 04:28:34;;;;;;;1.92;1.83;;;21.30;67.10;;;;;;5006080;28;20184;-71
2022/09/12 04:31:03;;;;;;;1.88;1.77;;;21.30;67.90;;;;;;5039653;28;20203;-71
2022/09/12 04:33:29;;;;;;;2.00;1.90;;;21.30;67.10;;;;;;5039229;28;20188;-70
2022/09/12 04:35:55;;;;;;;2.08;1.98;;;21.30;67.00;;;;;;5038974;28;20214;-70
2022/09/12 04:38:21;;;;;;;2.20;2.10;;;21.30;67.00;;;;;;5023655;28;20621;-71
2022/09/12 04:40:47;;;;;;;2.15;2.05;;;21.30;67.00;;;;;;5040093;28;20299;-71
2022/09/12 04:43:12;;;;;;;2.50;2.30;;;21.30;66.90;;;;;;5039439;28;20184;-71
2022/09/12 04:45:38;;;;;;;1.90;1.80;;;21.30;66.90;;;;;;5038219;28;20192;-71
2022/09/12 04:48:04;;;;;;;2.13;2.03;;;21.30;66.80;;;;;;5039220;28;20188;-71
2022/09/12 04:50:30;;;;;;;2.10;2.00;;;21.30;66.80;;;;;;5039038;28;20595;-71
2022/09/12 04:52:55;;;;;;;2.15;2.05;;;21.30;66.90;;;;;;5037438;28;20203;-71
2022/09/12 04:55:24;;;;;;;2.30;2.10;;;21.30;67.00;;;;;;5005286;28;20187;-71
2022/09/12 04:57:50;;;;;;;1.90;1.80;;;21.30;66.90;;;;;;5037857;28;20191;-71
2022/09/12 05:00:16;;;;;;;2.17;1.98;;;21.30;66.80;;;;;;5037978;28;20219;-71
2022/09/12 05:02:42;;;;;;;1.88;1.77;;;21.30;66.90;;;;;;5038282;28;20214;-70
2022/09/12 05:05:09;;;;;;;2.10;2.00;;;21.30;66.90;;;;;;5004775;28;20278;-71
2022/09/12 05:07:35;;;;;;;1.80;1.70;;;21.20;66.80;;;;;;5003520;28;20210;-71
2022/09/12 05:10:03;;;;;;;2.05;1.95;;;21.30;66.90;;;;;;5036013;28;20595;-71
2022/09/12 05:12:30;;;;;;;2.35;2.15;;;21.30;66.90;;;;;;5003134;28;20227;-71
2022/09/12 05:14:56;;;;;;;2.10;2.00;;;21.20;66.80;;;;;;5035681;28;20196;-71
2022/09/12 05:17:22;;;;;;;1.95;1.85;;;21.20;66.80;;;;;;5035791;28;20195;-70
2022/09/12 05:19:48;;;;;;;2.05;1.92;;;21.30;67.00;;;;;;5036564;28;20242;-70
2022/09/12 05:22:14;;;;;;;2.20;2.10;;;21.30;67.00;;;;;;5003886;28;20187;-71
2022/09/12 05:24:42;;;;;;;2.13;2.03;;;21.30;67.00;;;;;;5035261;28;20184;-71
2022/09/12 05:27:08;;;;;;;1.90;1.80;;;21.20;66.80;;;;;;5036429;28;20192;-70
2022/09/12 05:29:34;;;;;;;2.22;2.13;;;21.20;66.70;;;;;;5036746;28;20195;-71
2022/09/12 05:32:01;;;;;;;2.30;2.10;;;21.30;66.90;;;;;;5036692;28;20216;-71
2022/09/12 05:34:27;;;;;;;2.08;1.98;;;21.30;66.90;;;;;;5036882;28;20199;-71
2022/09/12 05:36:53;;;;;;;2.00;1.90;;;21.30;66.80;;;;;;5019438;28;20242;-71
2022/09/12 05:39:19;;;;;;;2.17;2.08;;;21.30;66.80;;;;;;5036868;28;20251;-71
2022/09/12 05:41:46;;;;;;;2.35;2.25;;;21.30;66.70;;;;;;5038292;28;20207;-71
2022/09/12 05:44:13;;;;;;;2.20;2.00;;;21.30;67.00;;;;;;5003957;28;20231;-71
2022/09/12 05:46:43;;;;;;;2.00;1.90;;;21.30;66.70;;;;;;5002284;28;20184;-70
2022/09/12 05:49:12;;;;;;;2.25;2.10;;;21.30;66.70;;;;;;5003806;28;20287;-70
2022/09/12 05:51:42;;;;;;;1.83;1.73;;;21.20;66.60;;;;;;5003096;28;20204;-70
2022/09/12 05:54:12;;;;;;;2.20;2.10;;;21.20;66.60;;;;;;5003495;28;20283;-70
2022/09/12 05:56:43;;;;;;;2.25;2.10;;;21.30;66.80;;;;;;5001945;28;20227;-70
2022/09/12 05:59:18;;;;;;;2.00;1.83;;;21.30;66.80;;;;;;5019747;28;20208;-71
2022/09/12 06:01:45;;;;;;;2.38;2.28;;;21.30;66.80;;;;;;5003322;28;20203;-71
2022/09/12 06:04:11;;;;;;;2.10;2.00;;;21.20;66.70;;;;;;5020027;28;20183;-71
2022/09/12 06:06:40;;;;;;;2.38;2.17;;;21.30;66.80;;;;;;5009336;28;20183;-70
2022/09/12 06:09:07;;;;;;;1.92;1.83;;;21.30;66.80;;;;;;5039622;28;20199;-71
2022/09/12 06:11:36;;;;;;;2.30;2.10;;;21.20;66.70;;;;;;5022808;28;20227;-71
2022/09/12 06:14:02;;;;;;;1.90;1.80;;;21.20;66.70;;;;;;5023432;28;20187;-71
2022/09/12 06:16:31;;;;;;;2.38;2.17;;;21.20;66.70;;;;;;5039214;28;20187;-71
2022/09/12 06:19:01;;;;;;;3.35;2.00;;;21.20;66.70;;;;;;5039417;28;20215;-71
2022/09/12 06:21:29;;;;;;;2.00;1.90;;;21.20;66.70;;;;;;5039810;28;20217;-70
2022/09/12 06:23:57;;;;;;;2.20;2.10;;;21.20;66.70;;;;;;5023384;28;20190;-71
2022/09/12 06:26:25;;;;;;;2.20;2.10;;;21.30;66.80;;;;;;5022479;28;20247;-70
2022/09/12 06:28:53;;;;;;;2.00;1.90;;;21.20;66.60;;;;;;5039183;28;20240;-71
2022/09/12 06:31:24;;;;;;;1.85;1.75;;;21.20;66.70;;;;;;5023556;28;20301;-71
2022/09/12 06:33:52;;;;;;;1.80;1.70;;;21.20;66.70;;;;;;5022980;28;20191;-71
2022/09/12 06:36:27;;;;;;;2.10;1.90;;;21.20;66.70;;;;;;5022187;28;20229;-70
2022/09/12 06:38:59;;;;;;;1.83;1.70;;;21.30;66.80;;;;;;5039387;28;20211;-71
2022/09/12 06:41:27;;;;;;;1.83;1.73;;;21.30;66.80;;;;;;5040302;28;20218;-71
2022/09/12 06:43:53;;;;;;;1.95;1.83;;;21.30;66.80;;;;;;5022862;28;20190;-71
2022/09/12 06:46:20;;;;;;;2.22;2.03;;;21.20;66.70;;;;;;5039455;28;20217;-71
2022/09/12 06:48:46;;;;;;;2.03;1.90;;;21.30;66.80;;;;;;5022864;28;20205;-71
2022/09/12 06:51:16;;;;;;;2.03;1.83;;;21.30;66.80;;;;;;5022929;28;20214;-71
2022/09/12 06:53:43;;;;;;;2.00;1.90;;;21.30;66.70;;;;;;5023245;28;20193;-71
2022/09/12 06:56:18;;;;;;;2.10;2.00;;;21.30;66.70;;;;;;5022588;28;20230;-71
2022/09/12 06:58:45;;;;;;;2.30;2.10;;;21.30;66.70;;;;;;5023938;28;20202;-71
2022/09/12 07:01:31;;;;;;;2.90;2.63;;;21.30;66.70;;;;;;5023585;28;20236;-71
2022/09/12 07:04:02;;;;;;;3.10;1.95;;;21.30;66.70;;;;;;5024336;28;20237;-71
2022/09/12 07:06:35;;;;;;;1.98;1.88;;;21.30;66.70;;;;;;5023432;28;20192;-70
2022/09/12 07:09:04;;;;;;;2.17;2.08;;;21.30;66.70;;;;;;5024285;28;20187;-71
2022/09/12 07:11:35;;;;;;;2.30;2.10;;;21.30;66.70;;;;;;5025515;28;20207;-71
2022/09/12 07:14:04;;;;;;;2.10;2.00;;;21.40;66.90;;;;;;5042846;28;20186;-71
2022/09/12 07:16:31;;;;;;;2.40;2.10;;;21.40;66.90;;;;;;5024780;28;20187;-71
2022/09/12 07:19:00;;;;;;;2.10;2.00;;;21.40;66.90;;;;;;5038631;28;20211;-71
2022/09/12 07:21:28;;;;;;;2.00;1.90;;;21.40;66.90;;;;;;5022198;28;20208;-71
2022/09/12 07:23:55;;;;;;;2.35;2.13;;;21.40;66.90;;;;;;5038396;28;20179;-71
2022/09/12 07:26:21;;;;;;;2.13;2.00;;;21.40;66.90;;;;;;5037697;28;20246;-71
2022/09/12 07:28:54;;;;;;;2.00;1.90;;;21.40;67.00;;;;;;5038660;28;20341;-71
2022/09/12 07:31:23;;;;;;;2.08;1.98;;;21.40;67.00;;;;;;5022582;28;20203;-71
2022/09/12 07:33:50;;;;;;;1.98;1.88;;;21.40;67.00;;;;;;5022130;28;20191;-71
2022/09/12 07:36:23;;;;;;;1.92;1.83;;;21.40;67.00;;;;;;5021578;28;20647;-70
2022/09/12 07:38:55;;;;;;;1.90;1.80;;;21.50;67.00;;;;;;5021481;28;20305;-71
2022/09/12 07:41:25;;;;;;;1.80;1.70;;;21.50;67.00;;;;;;5021813;28;20198;-71
2022/09/12 07:43:57;;;;;;;1.92;1.83;;;21.50;67.00;;;;;;5022553;28;20181;-71
2022/09/12 07:46:25;;;;;;;1.92;1.83;;;21.50;66.90;;;;;;5023077;28;20183;-70
2022/09/12 07:48:53;;;;;;;1.70;1.60;;;21.50;66.80;;;;;;5042610;28;20183;-71
2022/09/12 07:51:20;;;;;;;3.15;1.80;;;21.60;66.90;;;;;;5010228;28;20206;-71
2022/09/12 07:53:48;;;;;;;2.00;1.90;;;21.60;66.80;;;;;;5022660;28;20751;-71
2022/09/12 07:56:15;;;;;;;1.90;1.80;;;21.70;66.90;;;;;;5021556;28;20191;-71
2022/09/12 07:58:42;;;;;;;1.90;1.80;;;21.70;66.80;;;;;;5006510;28;20228;-71
2022/09/12 08:01:18;;;;;;;2.80;1.85;;;21.70;66.70;;;;;;5022174;28;20212;-71
2022/09/12 08:03:51;;;;;;;1.65;1.55;;;21.70;66.70;;;;;;5008124;28;20179;-71
2022/09/12 08:06:20;;;;;;;2.22;1.58;;;21.80;66.80;;;;;;5004960;28;20651;-71
2022/09/12 08:08:47;;;;;;;2.05;1.95;;;21.80;66.80;;;;;;5019892;28;20204;-71
2022/09/12 08:11:16;;;;;;;1.88;1.77;;;21.80;66.80;;;;;;5041662;28;20242;-71
2022/09/12 08:13:43;;;;;;;1.70;1.60;;;21.80;66.70;;;;;;5041017;28;20201;-71
2022/09/12 08:16:21;;;;;;;1.90;1.80;;;21.80;66.80;;;;;;5040927;28;20188;-71
2022/09/12 08:18:48;;;;;;;2.55;1.65;;;21.80;67.50;;;;;;5041322;28;20225;-71
2022/09/12 08:21:17;;;;;;;1.85;1.52;;;21.80;66.80;;;;;;5026083;28;20203;-71
2022/09/12 08:23:43;;;;;;;1.70;1.60;;;21.80;66.70;;;;;;5024670;28;20183;-71
2022/09/12 08:26:11;;;;;;;1.42;1.35;;;21.90;66.80;;;;;;5025069;28;20246;-71
2022/09/12 08:28:39;;;;;;;1.80;1.70;;;21.80;66.70;;;;;;5025359;28;20183;-71
2022/09/12 08:31:13;;;;;;;1.58;1.48;;;21.80;66.70;;;;;;5024676;28;20298;-71
2022/09/12 08:33:39;;;;;;;1.83;1.20;;;21.90;66.90;;;;;;5024711;28;20183;-71
2022/09/12 08:36:11;;;;;;;1.75;1.60;;;21.90;66.90;;;;;;5024908;28;20187;-71
2022/09/12 08:38:41;;;;;;;1.95;1.85;;;21.90;67.00;;;;;;5024623;28;20215;-71
2022/09/12 08:41:46;;;;;;;1.80;1.70;;;21.80;66.90;;;;;;5025198;28;20279;-71
2022/09/12 08:44:37;;;;;;;1.92;1.65;;;21.80;66.90;;;;;;5024877;28;20659;-71
2022/09/12 08:47:23;;;;;;;1.60;1.50;;;21.90;67.00;;;;;;5023611;28;20195;-71
2022/09/12 08:50:11;;;;;;;1.60;1.50;;;21.80;66.80;;;;;;5025004;28;20663;-71
2022/09/12 08:52:48;;;;;;;1.42;1.33;;;21.90;67.00;;;;;;5025262;28;20190;-71
2022/09/12 08:55:31;;;;;;;1.67;1.58;;;21.90;67.00;;;;;;5025541;28;20197;-71
2022/09/12 08:57:59;;;;;;;1.70;1.60;;;21.90;67.00;;;;;;5040419;28;20196;-71
2022/09/12 09:00:40;;;;;;;1.70;1.60;;;21.80;66.90;;;;;;5041448;28;20226;-71
2022/09/12 09:03:44;;;;;;;1.83;1.73;;;21.80;67.00;;;;;;5025537;28;20224;-72
2022/09/12 09:06:48;;;;;;;1.67;1.52;;;21.80;67.00;;;;;;5024713;28;20183;-71
2022/09/12 09:10:12;;;;;;;1.60;1.50;;;21.90;67.00;;;;;;5020815;28;20199;-71
2022/09/12 09:12:57;;;;;;;1.70;1.60;;;21.90;67.20;;;;;;4968576;28;20197;-71
2022/09/12 09:16:03;;;;;;;1.50;1.40;;;21.80;67.00;;;;;;4985022;28;20188;-71
2022/09/12 09:18:34;;;;;;;1.60;1.50;;;21.80;67.00;;;;;;5017224;28;20289;-71
2022/09/12 09:21:25;;;;;;;1.67;1.58;;;21.90;67.20;;;;;;5025111;28;20223;-71
2022/09/12 09:24:03;;;;;;;1.58;1.38;;;21.90;67.20;;;;;;5024745;28;20187;-71
2022/09/12 09:26:41;;;;;;;1.63;1.52;;;21.80;67.10;;;;;;5024673;28;20179;-70
2022/09/12 09:29:21;;;;;;;1.70;1.50;;;21.80;67.20;;;;;;5041660;28;20198;-71
2022/09/12 09:31:59;;;;;;;1.50;1.40;;;21.80;67.30;;;;;;5041892;28;20207;-71
2022/09/12 09:34:30;;;;;;;1.35;1.25;;;21.90;67.30;;;;;;5024965;28;20221;-72
2022/09/12 09:37:26;;;;;;;1.42;1.33;;;21.90;67.50;;;;;;5024036;28;20218;-71
2022/09/12 09:40:23;;;;;;;1.40;1.30;;;21.80;67.20;;;;;;5024768;28;20235;-71
2022/09/12 09:43:12;;;;;;;1.63;1.52;;;21.80;67.30;;;;;;5041383;28;20651;-71
2022/09/12 09:45:40;;;;;;;1.33;1.30;;;21.80;67.40;;;;;;5025155;28;20268;-72
2022/09/12 09:48:39;;;;;;;1.60;1.50;;;21.80;67.50;;;;;;5038650;28;20172;-71
2022/09/12 09:51:08;;;;;;;1.88;1.52;;;21.80;67.40;;;;;;5018391;28;20200;-71
2022/09/12 09:54:17;;;;;;;1.70;1.60;;;21.80;67.40;;;;;;5035262;28;20183;-71
2022/09/12 09:56:43;;;;;;;1.48;1.38;;;21.80;67.40;;;;;;4977398;28;20241;-71
2022/09/12 09:59:11;;;;;;;1.55;1.45;;;21.90;67.50;;;;;;5027117;28;20211;-71
2022/09/12 10:01:48;;;;;;;1.60;1.50;;;21.80;67.70;;;;;;5038396;28;20210;-71
2022/09/12 10:04:40;;;;;;;1.67;1.58;;;21.90;67.50;;;;;;5021151;28;20222;-71
2022/09/12 10:07:17;;;;;;;1.70;1.60;;;21.90;67.40;;;;;;5027281;28;20200;-71
2022/09/12 10:10:15;;;;;;;1.60;1.50;;;21.90;67.60;;;;;;5019468;28;20233;-71
2022/09/12 10:12:42;;;;;;;1.80;1.65;;;21.80;67.60;;;;;;5037966;28;20183;-71
2022/09/12 10:15:25;;;;;;;1.45;1.35;;;21.90;67.50;;;;;;5039638;28;20278;-71
2022/09/12 10:17:54;;;;;;;1.30;1.20;;;21.90;67.50;;;;;;5021621;28;20187;-71
2022/09/12 10:20:37;;;;;;;1.63;1.52;;;21.90;67.60;;;;;;5022134;28;20246;-71
2022/09/12 10:23:39;;;;;;;1.60;1.50;;;21.90;67.50;;;;;;5033575;28;20180;-71
2022/09/12 10:26:12;;;;;;;1.50;1.40;;;21.90;67.50;;;;;;5020469;28;20190;-71
2022/09/12 10:28:43;;;;;;;1.40;1.30;;;21.90;67.70;;;;;;5030054;28;20183;-71
2022/09/12 10:31:16;;;;;;;1.60;1.40;;;21.90;67.80;;;;;;5030819;28;20207;-71
2022/09/12 10:33:53;;;;;;;1.65;1.55;;;21.90;67.80;;;;;;5039658;28;20179;-71
2022/09/12 10:36:19;;;;;;;1.42;1.35;;;21.90;67.70;;;;;;5023522;28;20187;-70
2022/09/12 10:39:00;;;;;;;1.52;1.45;;;21.90;67.50;;;;;;5022219;28;20675;-71
2022/09/12 10:41:35;;;;;;;1.85;1.75;;;21.90;67.60;;;;;;5039665;28;20214;-71
2022/09/12 10:44:25;;;;;;;1.80;1.70;;;21.90;67.30;;;;;;5040134;28;20182;-71
2022/09/12 10:46:51;;;;;;;1.65;1.55;;;21.90;67.50;;;;;;5022363;28;20213;-72
2022/09/12 10:49:23;;;;;;;1.52;1.42;;;21.90;67.50;;;;;;5055009;28;20187;-71
2022/09/12 10:51:51;;;;;;;1.55;1.45;;;21.90;67.60;;;;;;5038572;28;20282;-71
2022/09/12 10:54:22;;;;;;;1.55;1.45;;;21.90;67.80;;;;;;5021787;28;20194;-72
2022/09/12 10:57:40;;;;;;;2.03;1.60;;;21.90;67.70;;;;;;5037305;28;20222;-71
2022/09/12 11:00:14;;;;;;;1.70;1.60;;;21.90;67.80;;;;;;4984949;28;20297;-72
2022/09/12 11:03:24;;;;;;;1.50;1.40;;;21.90;67.90;;;;;;5003212;28;20225;-71
2022/09/12 11:06:00;;;;;;;1.40;1.30;;;21.90;68.00;;;;;;5019080;28;20202;-71
2022/09/12 11:08:47;;;;;;;1.77;1.38;;;21.90;68.10;;;;;;5021831;28;20183;-71
2022/09/12 11:12:05;;;;;;;3.05;1.60;;;22.00;68.50;;;;;;5038867;28;20211;-71
2022/09/12 11:15:09;;;;;;;1.67;1.58;;;21.90;67.40;;;;;;5022962;28;20183;-70
2022/09/12 11:17:57;;;;;;;1.60;1.50;;;21.90;67.60;;;;;;5038238;28;20190;-71
2022/09/12 11:20:47;;;;;;;1.77;1.38;;;21.90;68.00;;;;;;5037897;28;20223;-71
2022/09/12 11:23:16;;;;;;;1.70;1.60;;;21.90;67.70;;;;;;5022859;28;20190;-70
2022/09/12 11:26:01;;;;;;;1.23;1.23;;;21.90;67.50;;;;;;5040224;28;20187;-71
2022/09/12 11:28:56;;;;;;;1.45;1.45;;;21.90;67.60;;;;;;5037167;28;20194;-71
2022/09/12 11:32:03;;;;;;;1.50;1.40;;;21.90;67.70;;;;;;5039503;28;20690;-71
2022/09/12 11:34:58;;;;;;;1.50;1.40;;;21.90;67.80;;;;;;5035893;28;20198;-70
2022/09/12 11:38:13;;;;;;;1.45;1.35;;;21.90;67.80;;;;;;5016887;28;20198;-71
2022/09/12 11:40:45;;;;;;;2.55;1.50;;;21.90;67.80;;;;;;5017857;28;20306;-71
2022/09/12 11:43:53;;;;;;;1.70;1.60;;;21.90;67.90;;;;;;5029074;28;20194;-71
2022/09/12 11:46:35;;;;;;;2.35;1.45;;;21.90;67.80;;;;;;5031231;28;20187;-72
2022/09/12 11:49:14;;;;;;;1.40;1.30;;;21.90;67.80;;;;;;5035860;28;20194;-70
2022/09/12 11:52:18;;;;;;;1.67;1.55;;;22.00;67.50;;;;;;5020380;28;20203;-70
2022/09/12 11:55:07;;;;;;;1.40;1.30;;;21.90;67.80;;;;;;5020224;28;20198;-70
2022/09/12 11:57:54;;;;;;;1.70;1.60;;;21.90;67.60;;;;;;5036709;28;20180;-71
2022/09/12 12:00:32;;;;;;;1.60;1.50;;;21.90;67.40;;;;;;5046887;28;20268;-71
2022/09/12 12:02:58;;;;;;;1.60;1.50;;;22.00;67.70;;;;;;5036803;28;20217;-71
2022/09/12 12:05:38;;;;;;;1.38;1.35;;;22.00;67.60;;;;;;5020355;28;20188;-71
2022/09/12 12:08:06;;;;;;;3.08;1.40;;;22.00;67.50;;;;;;5019627;28;20567;-70
2022/09/12 12:11:01;;;;;;;1.50;1.40;;;22.00;67.40;;;;;;5020489;28;20207;-71
2022/09/12 12:13:46;;;;;;;1.50;1.40;;;21.90;67.50;;;;;;5025889;28;20205;-72
2022/09/12 12:16:48;;;;;;;1.60;1.50;;;21.90;67.60;;;;;;5019864;28;20183;-70
2022/09/12 12:19:14;;;;;;;1.50;1.40;;;22.00;67.80;;;;;;5008748;28;20223;-71
2022/09/12 12:21:46;;;;;;;1.48;1.38;;;22.00;67.30;;;;;;5037233;28;20207;-71
2022/09/12 12:24:27;;;;;;;1.50;1.40;;;22.00;67.10;;;;;;5033189;28;20211;-71
2022/09/12 12:26:58;;;;;;;1.45;1.35;;;22.00;67.00;;;;;;5026485;28;20183;-70
2022/09/12 12:29:30;;;;;;;2.05;1.52;;;22.00;67.50;;;;;;5052493;28;20215;-71
2022/09/12 12:31:58;;;;;;;1.35;1.25;;;22.00;67.40;;;;;;5037689;28;20218;-71
2022/09/12 12:34:37;;;;;;;1.13;1.10;;;22.00;67.40;;;;;;5023757;28;20186;-71
2022/09/12 12:37:18;;;;;;;1.60;1.40;;;22.00;67.50;;;;;;5036432;28;20559;-71
2022/09/12 12:39:46;;;;;;;3.85;2.42;;;22.00;67.30;;;;;;5024836;28;20221;-71
2022/09/12 12:42:42;;;;;;;6.22;3.20;;;22.00;67.10;;;;;;5022705;28;20199;-71
2022/09/12 12:45:07;;;;;;;3.67;1.70;;;22.00;67.90;;;;;;5015419;28;20187;-71
2022/09/12 12:47:43;;;;;;;2.75;1.88;;;22.00;67.00;;;;;;5038060;28;20674;-70
2022/09/12 12:50:22;;;;;;;2.42;1.50;;;22.00;67.00;;;;;;5016797;28;20225;-69
2022/09/12 12:53:22;;;;;;;1.90;1.70;;;22.00;67.40;;;;;;5040840;28;20195;-72
2022/09/12 12:55:51;;;;;;;1.50;1.40;;;22.00;67.40;;;;;;5024251;28;20297;-71
2022/09/12 12:58:38;;;;;;;2.25;1.80;;;21.90;67.00;;;;;;5023338;28;20192;-71
2022/09/12 13:01:15;;;;;;;2.55;2.00;;;22.00;67.10;;;;;;5022818;28;20226;-70
2022/09/12 13:03:46;;;;;;;1.90;1.67;;;22.00;66.60;;;;;;5022679;28;20183;-71
2022/09/12 13:06:37;;;;;;;2.03;1.42;;;22.00;66.80;;;;;;5022840;28;20207;-70
2022/09/12 13:09:08;;;;;;;2.33;1.60;;;22.00;66.80;;;;;;5022866;28;20179;-70
2022/09/12 13:11:39;;;;;;;1.90;1.45;;;22.00;67.80;;;;;;5023046;28;20269;-71
2022/09/12 13:14:41;;;;;;;2.03;1.60;;;22.00;67.20;;;;;;5023081;28;20255;-70
2022/09/12 13:17:19;;;;;;;1.95;1.75;;;22.00;67.00;;;;;;5039058;28;20187;-70
2022/09/12 13:19:46;;;;;;;1.75;1.55;;;22.00;66.70;;;;;;5021995;28;20215;-70
2022/09/12 13:22:13;;;;;;;2.15;1.58;;;22.00;66.50;;;;;;5021384;28;20205;-70
2022/09/12 13:24:47;;;;;;;1.98;1.77;;;22.00;66.80;;;;;;5042131;28;20187;-71
2022/09/12 13:27:24;;;;;;;2.20;1.40;;;22.00;66.70;;;;;;5022749;28;20183;-70
2022/09/12 13:30:13;;;;;;;1.73;1.63;;;22.00;66.60;;;;;;5022940;28;20182;-70
2022/09/12 13:32:41;;;;;;;2.10;1.63;;;22.00;66.80;;;;;;5022723;28;20214;-70
2022/09/12 13:35:18;;;;;;;1.90;1.63;;;22.00;66.60;;;;;;5022393;28;20183;-70
2022/09/12 13:38:21;;;;;;;2.30;1.30;;;22.00;67.00;;;;;;5022691;28;20167;-70
2022/09/12 13:41:19;;;;;;;1.85;1.55;;;22.00;67.50;;;;;;5038614;28;20233;-70